Time;durP1;ratioP1;P1;durP2;ratioP2;P2;SDS_P1;SDS_P2;PMS_P1;PMS_P2;Temp;Humidity;BMP_temperature;BMP_pressure;BME280_temperature;BME280_humidity;BME280_pressure;Samples;Min_cycle;Max_cycle;Signal;HPM_P1;HPM_P2
2023/04/13 00:00:23;;;;;;;;;;;;;;;;;;6176786;28;19898;-84
2023/04/13 00:03:23;;;;;;;;;;;;;;;;;;6182511;28;19899;-84
2023/04/13 00:06:24;;;;;;;;;;;;;;;;;;6169940;28;19919;-85
2023/04/13 00:09:30;;;;;;;;;;;;;;;;;;6161126;29;19910;-86
2023/04/13 00:12:30;;;;;;;;;;;;;;;;;;6156010;29;19910;-85
2023/04/13 00:15:30;;;;;;;;;;;;;;;;;;6167877;28;19981;-84
2023/04/13 00:18:30;;;;;;;;;;;;;;;;;;6179825;29;19898;-84
2023/04/13 00:21:32;;;;;;;;;;;;;;;;;;6175980;28;19922;-86
2023/04/13 00:24:33;;;;;;;;;;;;;;;;;;6158270;29;19907;-86
2023/04/13 00:27:34;;;;;;;;;;;;;;;;;;6152501;28;19910;-86
2023/04/13 00:30:34;;;;;;;;;;;;;;;;;;6156803;29;19929;-86
2023/04/13 00:33:34;;;;;;;;;;;;;;;;;;6156886;29;19961;-86
2023/04/13 00:36:34;;;;;;;;;;;;;;;;;;6155902;29;20039;-86
2023/04/13 00:39:34;;;;;;;;;;;;;;;;;;6158098;29;19907;-87
2023/04/13 00:42:35;;;;;;;;;;;;;;;;;;6155397;29;19930;-86
2023/04/13 00:45:38;;;;;;;;;;;;;;;;;;6154417;28;19907;-85
2023/04/13 00:48:38;;;;;;;;;;;;;;;;;;6153540;29;19941;-86
2023/04/13 00:51:39;;;;;;;;;;;;;;;;;;6158409;28;20424;-87
2023/04/13 00:54:39;;;;;;;;;;;;;;;;;;6154156;28;19945;-86
2023/04/13 00:57:40;;;;;;;;;;;;;;;;;;6151136;29;20376;-87
2023/04/13 01:00:41;;;;;;;;;;;;;;;;;;6152645;29;19922;-86
2023/04/13 01:03:42;;;;;;;;;;;;;;;;;;6152235;29;20440;-86
2023/04/13 01:06:43;;;;;;;;;;;;;;;;;;6153215;28;19912;-87
2023/04/13 01:09:43;;;;;;;;;;;;;;;;;;6151790;28;20372;-87
2023/04/13 01:12:43;;;;;;;;;;;;;;;;;;6151019;28;19992;-87
2023/04/13 01:15:45;;;;;;;;;;;;;;;;;;6152740;28;19961;-88
2023/04/13 01:18:45;;;;;;;;;;;;;;;;;;6152062;28;20348;-86
2023/04/13 01:21:45;;;;;;;;;;;;;;;;;;6154266;28;19926;-87
2023/04/13 01:24:46;;;;;;;;;;;;;;;;;;6148100;28;20254;-86
2023/04/13 01:27:46;;;;;;;;;;;;;;;;;;6169107;28;19918;-83
2023/04/13 01:30:46;;;;;;;;;;;;;;;;;;6180321;28;19905;-83
2023/04/13 01:33:46;;;;;;;;;;;;;;;;;;6170845;28;19922;-87
2023/04/13 01:36:46;;;;;;;;;;;;;;;;;;6150345;29;20396;-86
2023/04/13 01:39:46;;;;;;;;;;;;;;;;;;6149804;28;19922;-86
2023/04/13 01:42:47;;;;;;;;;;;;;;;;;;6149350;28;19906;-87
2023/04/13 01:45:47;;;;;;;;;;;;;;;;;;6150340;29;19966;-87
2023/04/13 01:48:47;;;;;;;;;;;;;;;;;;6150083;29;19914;-87
2023/04/13 01:51:47;;;;;;;;;;;;;;;;;;6150510;28;20296;-87
2023/04/13 01:54:47;;;;;;;;;;;;;;;;;;6146923;29;19914;-87
2023/04/13 01:57:47;;;;;;;;;;;;;;;;;;6150142;29;19915;-87
2023/04/13 02:00:47;;;;;;;;;;;;;;;;;;6150159;29;19910;-88
2023/04/13 02:03:47;;;;;;;;;;;;;;;;;;6157622;29;19946;-86
2023/04/13 02:06:50;;;;;;;;;;;;;;;;;;6160043;29;19993;-88
2023/04/13 02:09:50;;;;;;;;;;;;;;;;;;6147710;29;20397;-88
2023/04/13 02:12:51;;;;;;;;;;;;;;;;;;6148286;29;19924;-88
2023/04/13 02:15:51;;;;;;;;;;;;;;;;;;6153256;28;19915;-87
2023/04/13 02:18:51;;;;;;;;;;;;;;;;;;6148057;28;19918;-88
2023/04/13 02:21:52;;;;;;;;;;;;;;;;;;6149667;28;19945;-87
2023/04/13 02:24:53;;;;;;;;;;;;;;;;;;6146886;28;19917;-87
2023/04/13 02:27:53;;;;;;;;;;;;;;;;;;6151398;28;19917;-84
2023/04/13 02:30:54;;;;;;;;;;;;;;;;;;6157793;28;19907;-85
2023/04/13 02:33:54;;;;;;;;;;;;;;;;;;6146502;28;20392;-82
2023/04/13 02:36:54;;;;;;;;;;;;;;;;;;6150743;29;19906;-85
2023/04/13 02:39:54;;;;;;;;;;;;;;;;;;6159915;28;19906;-84
2023/04/13 02:42:56;;;;;;;;;;;;;;;;;;6156884;28;19913;-84
2023/04/13 02:45:56;;;;;;;;;;;;;;;;;;6159679;28;20004;-85
2023/04/13 02:48:56;;;;;;;;;;;;;;;;;;6149243;28;19910;-85
2023/04/13 02:51:58;;;;;;;;;;;;;;;;;;6152677;28;19981;-84
2023/04/13 02:54:58;;;;;;;;;;;;;;;;;;6153751;28;20296;-86
2023/04/13 02:57:59;;;;;;;;;;;;;;;;;;6153635;28;19907;-86
2023/04/13 03:00:59;;;;;;;;;;;;;;;;;;6156877;28;20281;-83
2023/04/13 03:03:59;;;;;;;;;;;;;;;;;;6156278;29;19906;-82
2023/04/13 03:07:03;;;;;;;;;;;;;;;;;;6156023;28;19906;-84
2023/04/13 03:10:04;;;;;;;;;;;;;;;;;;6155054;28;19906;-85
2023/04/13 03:13:04;;;;;;;;;;;;;;;;;;6156914;28;19918;-85
2023/04/13 03:16:04;;;;;;;;;;;;;;;;;;6156207;29;20411;-84
2023/04/13 03:19:04;;;;;;;;;;;;;;;;;;6149604;28;19965;-85
2023/04/13 03:22:05;;;;;;;;;;;;;;;;;;6156874;28;19914;-86
2023/04/13 03:25:05;;;;;;;;;;;;;;;;;;6157311;29;19906;-85
2023/04/13 03:28:05;;;;;;;;;;;;;;;;;;6150077;28;19907;-87
2023/04/13 03:31:05;;;;;;;;;;;;;;;;;;6178613;28;19899;-82
2023/04/13 03:34:05;;;;;;;;;;;;;;;;;;6180724;28;19902;-83
2023/04/13 03:37:05;;;;;;;;;;;;;;;;;;6168859;28;19914;-86
2023/04/13 03:40:08;;;;;;;;;;;;;;;;;;6156825;28;19973;-86
2023/04/13 03:43:09;;;;;;;;;;;;;;;;;;6159095;28;19910;-86
2023/04/13 03:46:09;;;;;;;;;;;;;;;;;;6169896;28;19910;-86
2023/04/13 03:49:09;;;;;;;;;;;;;;;;;;6189170;28;19894;-84
2023/04/13 03:52:09;;;;;;;;;;;;;;;;;;6182203;28;19894;-83
2023/04/13 03:55:09;;;;;;;;;;;;;;;;;;6174118;28;19918;-86
2023/04/13 03:58:10;;;;;;;;;;;;;;;;;;6170790;28;19914;-85
2023/04/13 04:01:10;;;;;;;;;;;;;;;;;;6161887;28;19921;-86
2023/04/13 04:04:10;;;;;;;;;;;;;;;;;;6154219;28;20000;-86
2023/04/13 04:07:10;;;;;;;;;;;;;;;;;;6154547;28;19917;-87
2023/04/13 04:10:10;;;;;;;;;;;;;;;;;;6153363;28;19910;-86
2023/04/13 04:13:10;;;;;;;;;;;;;;;;;;6152509;28;19910;-87
2023/04/13 04:16:11;;;;;;;;;;;;;;;;;;6154381;29;19945;-87
2023/04/13 04:19:11;;;;;;;;;;;;;;;;;;6154464;29;20395;-86
2023/04/13 04:22:12;;;;;;;;;;;;;;;;;;6153521;28;20008;-87
2023/04/13 04:25:22;;;;;;;;;;;;;;;;;;6153335;29;20401;-87
2023/04/13 04:28:22;;;;;;;;;;;;;;;;;;6149297;28;20002;-86
2023/04/13 04:31:23;;;;;;;;;;;;;;;;;;6152329;29;19906;-87
2023/04/13 04:34:24;;;;;;;;;;;;;;;;;;6152804;29;19950;-86
2023/04/13 04:37:24;;;;;;;;;;;;;;;;;;6152391;29;19911;-87
2023/04/13 04:40:26;;;;;;;;;;;;;;;;;;6151372;28;20369;-78
2023/04/13 04:43:28;;;;;;;;;;;;;;;;;;6152631;28;19954;-86
2023/04/13 04:46:28;;;;;;;;;;;;;;;;;;6149296;29;19937;-86
2023/04/13 04:49:29;;;;;;;;;;;;;;;;;;6162390;28;19898;-86
2023/04/13 04:52:31;;;;;;;;;;;;;;;;;;6180948;28;19930;-87
2023/04/13 04:55:32;;;;;;;;;;;;;;;;;;6180412;28;19914;-85
2023/04/13 04:58:32;;;;;;;;;;;;;;;;;;6164474;29;19957;-88
2023/04/13 05:01:33;;;;;;;;;;;;;;;;;;6157855;29;19913;-87
2023/04/13 05:04:33;;;;;;;;;;;;;;;;;;6155285;29;19911;-86
2023/04/13 05:07:36;;;;;;;;;;;;;;;;;;6157522;29;20399;-87
2023/04/13 05:10:37;;;;;;;;;;;;;;;;;;6157473;29;19917;-86
2023/04/13 05:13:37;;;;;;;;;;;;;;;;;;6150119;28;19914;-79
2023/04/13 05:16:37;;;;;;;;;;;;;;;;;;6152071;28;19933;-87
2023/04/13 05:19:37;;;;;;;;;;;;;;;;;;6148932;28;19953;-88
2023/04/13 05:22:37;;;;;;;;;;;;;;;;;;6151758;29;19907;-84
2023/04/13 05:25:38;;;;;;;;;;;;;;;;;;6147989;28;19922;-85
2023/04/13 05:28:38;;;;;;;;;;;;;;;;;;6151932;28;20360;-85
2023/04/13 05:31:38;;;;;;;;;;;;;;;;;;6150938;29;19906;-86
2023/04/13 05:34:38;;;;;;;;;;;;;;;;;;6149086;29;20316;-85
2023/04/13 05:37:39;;;;;;;;;;;;;;;;;;6146475;29;19910;-85
2023/04/13 05:40:39;;;;;;;;;;;;;;;;;;6149023;29;19910;-86
2023/04/13 05:43:39;;;;;;;;;;;;;;;;;;6149813;29;19915;-85
2023/04/13 05:46:39;;;;;;;;;;;;;;;;;;6148908;29;20253;-84
2023/04/13 05:49:40;;;;;;;;;;;;;;;;;;6150534;28;19911;-85
2023/04/13 05:52:40;;;;;;;;;;;;;;;;;;6150241;29;19912;-84
2023/04/13 05:55:40;;;;;;;;;;;;;;;;;;6143927;29;20425;-84
2023/04/13 05:58:41;;;;;;;;;;;;;;;;;;6148818;29;19910;-85
2023/04/13 06:01:41;;;;;;;;;;;;;;;;;;6148253;29;20160;-85
2023/04/13 06:04:42;;;;;;;;;;;;;;;;;;6148447;29;19957;-85
2023/04/13 06:07:45;;;;;;;;;;;;;;;;;;6147804;28;19917;-85
2023/04/13 06:10:45;;;;;;;;;;;;;;;;;;6147832;28;19910;-85
2023/04/13 06:13:45;;;;;;;;;;;;;;;;;;6149531;29;19969;-86
2023/04/13 06:16:45;;;;;;;;;;;;;;;;;;6150156;29;19958;-87
2023/04/13 06:19:45;;;;;;;;;;;;;;;;;;6150559;28;20021;-86
2023/04/13 06:22:46;;;;;;;;;;;;;;;;;;6148793;29;19933;-87
2023/04/13 06:25:46;;;;;;;;;;;;;;;;;;6151373;28;19913;-86
2023/04/13 06:28:46;;;;;;;;;;;;;;;;;;6156027;28;19906;-86
2023/04/13 06:31:46;;;;;;;;;;;;;;;;;;6152730;28;19912;-85
2023/04/13 06:34:46;;;;;;;;;;;;;;;;;;6158876;28;19989;-86
2023/04/13 06:37:47;;;;;;;;;;;;;;;;;;6155113;29;19910;-86
2023/04/13 06:40:47;;;;;;;;;;;;;;;;;;6153762;28;20404;-85
2023/04/13 06:43:47;;;;;;;;;;;;;;;;;;6154976;29;20318;-85
2023/04/13 06:46:47;;;;;;;;;;;;;;;;;;6147038;28;19922;-83
2023/04/13 06:49:47;;;;;;;;;;;;;;;;;;6152160;28;19933;-85
2023/04/13 06:52:48;;;;;;;;;;;;;;;;;;6153226;28;19924;-83
2023/04/13 06:55:48;;;;;;;;;;;;;;;;;;6154028;29;19918;-83
2023/04/13 06:58:48;;;;;;;;;;;;;;;;;;6153315;29;19914;-83
2023/04/13 07:01:48;;;;;;;;;;;;;;;;;;6148273;28;19918;-80
2023/04/13 07:04:48;;;;;;;;;;;;;;;;;;6155409;28;19914;-84
2023/04/13 07:07:48;;;;;;;;;;;;;;;;;;6154501;28;19914;-84
2023/04/13 07:10:49;;;;;;;;;;;;;;;;;;6151933;29;19914;-84
2023/04/13 07:13:49;;;;;;;;;;;;;;;;;;6157621;29;19918;-81
2023/04/13 07:16:49;;;;;;;;;;;;;;;;;;6171627;29;19949;-83
2023/04/13 07:19:49;;;;;;;;;;;;;;;;;;6173310;28;20041;-83
2023/04/13 07:22:49;;;;;;;;;;;;;;;;;;6156573;28;20022;-84
2023/04/13 07:25:49;;;;;;;;;;;;;;;;;;6154536;29;19910;-84
2023/04/13 07:28:49;;;;;;;;;;;;;;;;;;6153354;29;20273;-84
2023/04/13 07:31:50;;;;;;;;;;;;;;;;;;6155901;29;19906;-83
2023/04/13 07:34:50;;;;;;;;;;;;;;;;;;6174889;29;19914;-83
2023/04/13 07:37:50;;;;;;;;;;;;;;;;;;6176615;28;19937;-84
2023/04/13 07:40:51;;;;;;;;;;;;;;;;;;6172076;28;19914;-85
2023/04/13 07:43:51;;;;;;;;;;;;;;;;;;6153274;28;20379;-83
2023/04/13 07:46:53;;;;;;;;;;;;;;;;;;6152896;29;19925;-83
2023/04/13 07:49:53;;;;;;;;;;;;;;;;;;6152337;28;19907;-84
2023/04/13 07:52:54;;;;;;;;;;;;;;;;;;6151352;29;19937;-85
2023/04/13 07:55:54;;;;;;;;;;;;;;;;;;6152781;29;20361;-82
2023/04/13 07:58:54;;;;;;;;;;;;;;;;;;6150119;29;19914;-84
2023/04/13 08:01:54;;;;;;;;;;;;;;;;;;6152852;29;19910;-84
2023/04/13 08:04:54;;;;;;;;;;;;;;;;;;6152492;29;19906;-84
2023/04/13 08:07:55;;;;;;;;;;;;;;;;;;6153122;29;20297;-84
2023/04/13 08:10:55;;;;;;;;;;;;;;;;;;6153259;29;19954;-85
2023/04/13 08:13:55;;;;;;;;;;;;;;;;;;6154663;28;19921;-84
2023/04/13 08:16:55;;;;;;;;;;;;;;;;;;6152740;29;19970;-84
2023/04/13 08:19:58;;;;;;;;;;;;;;;;;;6151926;28;19922;-85
2023/04/13 08:22:59;;;;;;;;;;;;;;;;;;6155047;29;19921;-85
2023/04/13 08:26:01;;;;;;;;;;;;;;;;;;6159658;29;19906;-83
2023/04/13 08:29:02;;;;;;;;;;;;;;;;;;6179760;28;19970;-80
2023/04/13 08:32:02;;;;;;;;;;;;;;;;;;6184080;28;19914;-79
2023/04/13 08:35:06;;;;;;;;;;;;;;;;;;6176757;29;19922;-83
2023/04/13 08:38:06;;;;;;;;;;;;;;;;;;6152711;29;19953;-84
2023/04/13 08:41:06;;;;;;;;;;;;;;;;;;6152035;28;19910;-85
2023/04/13 08:44:07;;;;;;;;;;;;;;;;;;6151067;29;19922;-86
2023/04/13 08:47:07;;;;;;;;;;;;;;;;;;6150830;29;20399;-84
2023/04/13 08:50:07;;;;;;;;;;;;;;;;;;6149949;28;19911;-84
2023/04/13 08:53:09;;;;;;;;;;;;;;;;;;6148389;29;19965;-85
2023/04/13 08:56:09;;;;;;;;;;;;;;;;;;6152262;29;19906;-85
2023/04/13 08:59:10;;;;;;;;;;;;;;;;;;6150945;29;19913;-83
2023/04/13 09:02:10;;;;;;;;;;;;;;;;;;6149419;28;19917;-83
2023/04/13 09:05:14;;;;;;;;;;;;;;;;;;6152901;29;19911;-83
2023/04/13 09:08:15;;;;;;;;;;;;;;;;;;6149937;29;20284;-84
2023/04/13 09:11:16;;;;;;;;;;;;;;;;;;6151296;28;19910;-84
2023/04/13 09:14:16;;;;;;;;;;;;;;;;;;6154611;29;19914;-84
2023/04/13 09:17:16;;;;;;;;;;;;;;;;;;6153432;29;20005;-84
2023/04/13 09:20:16;;;;;;;;;;;;;;;;;;6149414;28;19940;-84
2023/04/13 09:23:16;;;;;;;;;;;;;;;;;;6151921;29;19911;-84
2023/04/13 09:26:16;;;;;;;;;;;;;;;;;;6149397;28;19925;-85
2023/04/13 09:29:16;;;;;;;;;;;;;;;;;;6151807;29;19950;-84
2023/04/13 09:32:17;;;;;;;;;;;;;;;;;;6150884;28;19993;-85
2023/04/13 09:35:17;;;;;;;;;;;;;;;;;;6149843;29;20005;-85
2023/04/13 09:38:17;;;;;;;;;;;;;;;;;;6149945;28;19910;-84
2023/04/13 09:41:17;;;;;;;;;;;;;;;;;;6150413;28;20437;-84
2023/04/13 09:44:19;;;;;;;;;;;;;;;;;;6152011;28;19906;-84
2023/04/13 09:47:19;;;;;;;;;;;;;;;;;;6150683;28;19918;-79
2023/04/13 09:50:19;;;;;;;;;;;;;;;;;;6147683;28;19920;-83
2023/04/13 09:53:19;;;;;;;;;;;;;;;;;;6152035;28;20008;-84
2023/04/13 09:56:20;;;;;;;;;;;;;;;;;;6149842;29;19933;-84
2023/04/13 09:59:20;;;;;;;;;;;;;;;;;;6150626;28;19913;-84
2023/04/13 10:02:20;;;;;;;;;;;;;;;;;;6149915;29;19906;-83
2023/04/13 10:05:21;;;;;;;;;;;;;;;;;;6148282;29;19950;-84
2023/04/13 10:08:21;;;;;;;;;;;;;;;;;;6149008;29;20436;-84
2023/04/13 10:11:21;;;;;;;;;;;;;;;;;;6146281;28;19917;-83
2023/04/13 10:14:21;;;;;;;;;;;;;;;;;;6143596;29;19922;-84
2023/04/13 10:17:21;;;;;;;;;;;;;;;;;;6145128;28;20548;-84
2023/04/13 10:20:22;;;;;;;;;;;;;;;;;;6141911;28;19977;-84
2023/04/13 10:23:22;;;;;;;;;;;;;;;;;;6149037;28;19986;-83
2023/04/13 10:26:22;;;;;;;;;;;;;;;;;;6151638;28;19907;-83
2023/04/13 10:29:22;;;;;;;;;;;;;;;;;;6147979;29;19914;-83
2023/04/13 10:32:22;;;;;;;;;;;;;;;;;;6148425;28;19921;-84
2023/04/13 10:35:24;;;;;;;;;;;;;;;;;;6148442;29;20014;-84
2023/04/13 10:38:26;;;;;;;;;;;;;;;;;;6142613;28;20427;-83
2023/04/13 10:41:27;;;;;;;;;;;;;;;;;;6150001;28;19938;-83
2023/04/13 10:44:27;;;;;;;;;;;;;;;;;;6148110;29;20404;-81
2023/04/13 10:47:27;;;;;;;;;;;;;;;;;;6146535;29;19946;-82
2023/04/13 10:50:27;;;;;;;;;;;;;;;;;;6148154;28;19910;-82
2023/04/13 10:53:29;;;;;;;;;;;;;;;;;;6147677;29;19922;-82
2023/04/13 10:56:29;;;;;;;;;;;;;;;;;;6145492;28;19910;-81
2023/04/13 10:59:30;;;;;;;;;;;;;;;;;;6148113;28;19953;-83
2023/04/13 11:02:30;;;;;;;;;;;;;;;;;;6148471;29;19918;-83
2023/04/13 11:05:30;;;;;;;;;;;;;;;;;;6147304;29;20382;-82
2023/04/13 11:08:33;;;;;;;;;;;;;;;;;;6147300;28;19954;-82
2023/04/13 11:11:33;;;;;;;;;;;;;;;;;;6144206;28;20009;-82
2023/04/13 11:14:37;;;;;;;;;;;;;;;;;;6151182;29;19910;-83
2023/04/13 11:17:37;;;;;;;;;;;;;;;;;;6148621;29;19915;-83
2023/04/13 11:20:37;;;;;;;;;;;;;;;;;;6153088;28;19929;-82
2023/04/13 11:23:37;;;;;;;;;;;;;;;;;;6152104;29;20392;-82
2023/04/13 11:26:38;;;;;;;;;;;;;;;;;;6152765;29;19914;-81
2023/04/13 11:29:38;;;;;;;;;;;;;;;;;;6152033;29;20012;-82
2023/04/13 11:32:38;;;;;;;;;;;;;;;;;;6155147;28;19964;-83
2023/04/13 11:35:38;;;;;;;;;;;;;;;;;;6154256;29;19910;-83
2023/04/13 11:38:39;;;;;;;;;;;;;;;;;;6157196;28;19914;-83
2023/04/13 11:41:39;;;;;;;;;;;;;;;;;;6167845;28;19890;-83
2023/04/13 11:44:41;;;;;;;;;;;;;;;;;;6176236;29;19914;-81
2023/04/13 11:47:41;;;;;;;;;;;;;;;;;;6175840;29;19930;-81
2023/04/13 11:50:41;;;;;;;;;;;;;;;;;;6160550;28;19921;-82
2023/04/13 11:53:41;;;;;;;;;;;;;;;;;;6152025;29;19985;-83
2023/04/13 11:56:41;;;;;;;;;;;;;;;;;;6150424;28;20050;-82
2023/04/13 11:59:42;;;;;;;;;;;;;;;;;;6152819;29;19993;-83
2023/04/13 12:02:42;;;;;;;;;;;;;;;;;;6156443;28;19919;-79
2023/04/13 12:05:42;;;;;;;;;;;;;;;;;;6173214;29;20368;-82
2023/04/13 12:08:42;;;;;;;;;;;;;;;;;;6172271;28;19919;-82
2023/04/13 12:11:43;;;;;;;;;;;;;;;;;;6172052;28;19968;-83
2023/04/13 12:14:44;;;;;;;;;;;;;;;;;;6155511;29;20289;-83
2023/04/13 12:17:45;;;;;;;;;;;;;;;;;;6152272;29;19910;-83
2023/04/13 12:20:47;;;;;;;;;;;;;;;;;;6151290;28;20266;-83
2023/04/13 12:23:47;;;;;;;;;;;;;;;;;;6150556;28;19910;-83
2023/04/13 12:26:47;;;;;;;;;;;;;;;;;;6151548;29;19910;-84
2023/04/13 12:29:47;;;;;;;;;;;;;;;;;;6151237;28;19906;-82
2023/04/13 12:32:47;;;;;;;;;;;;;;;;;;6152329;28;20014;-83
2023/04/13 12:35:48;;;;;;;;;;;;;;;;;;6153943;29;19915;-82
2023/04/13 12:38:48;;;;;;;;;;;;;;;;;;6167616;28;19914;-81
2023/04/13 12:41:48;;;;;;;;;;;;;;;;;;6181076;28;19917;-80
2023/04/13 12:44:48;;;;;;;;;;;;;;;;;;6180608;28;19909;-82
2023/04/13 12:47:48;;;;;;;;;;;;;;;;;;6169474;28;19910;-81
2023/04/13 12:50:48;;;;;;;;;;;;;;;;;;6154761;28;19946;-82
2023/04/13 12:53:48;;;;;;;;;;;;;;;;;;6151951;28;19940;-82
2023/04/13 12:56:48;;;;;;;;;;;;;;;;;;6150898;28;20389;-82
2023/04/13 12:59:50;;;;;;;;;;;;;;;;;;6166567;29;19910;-81
2023/04/13 13:02:56;;;;;;;;;;;;;;;;;;6158939;28;19917;-85
2023/04/13 13:05:56;;;;;;;;;;;;;;;;;;6156665;29;20292;-82
2023/04/13 13:08:56;;;;;;;;;;;;;;;;;;6153177;28;20372;-83
2023/04/13 13:11:56;;;;;;;;;;;;;;;;;;6157309;29;19911;-82
2023/04/13 13:14:57;;;;;;;;;;;;;;;;;;6155531;29;19921;-83
2023/04/13 13:17:59;;;;;;;;;;;;;;;;;;6150542;29;19914;-83
2023/04/13 13:20:59;;;;;;;;;;;;;;;;;;6157284;28;20406;-82
2023/04/13 13:23:59;;;;;;;;;;;;;;;;;;6156257;29;19910;-82
2023/04/13 13:27:00;;;;;;;;;;;;;;;;;;6157529;28;19929;-82
2023/04/13 13:30:02;;;;;;;;;;;;;;;;;;6152439;29;19910;-84
2023/04/13 13:33:02;;;;;;;;;;;;;;;;;;6151282;28;19923;-83
2023/04/13 13:36:03;;;;;;;;;;;;;;;;;;6156541;28;20242;-82
2023/04/13 13:39:04;;;;;;;;;;;;;;;;;;6152588;29;19907;-80
2023/04/13 13:42:04;;;;;;;;;;;;;;;;;;6149948;29;20380;-81
2023/04/13 13:45:04;;;;;;;;;;;;;;;;;;6152795;29;19938;-83
2023/04/13 13:48:04;;;;;;;;;;;;;;;;;;6160008;28;19969;-83
2023/04/13 13:51:05;;;;;;;;;;;;;;;;;;6152759;28;19894;-82
2023/04/13 13:54:05;;;;;;;;;;;;;;;;;;6152535;29;19921;-82
2023/04/13 13:57:05;;;;;;;;;;;;;;;;;;6153441;29;19910;-83
2023/04/13 14:00:26;;;;;;;;;;;;;;;;;;6153523;29;19918;-82
2023/04/13 14:03:26;;;;;;;;;;;;;;;;;;6152134;29;19910;-83
2023/04/13 14:06:26;;;;;;;;;;;;;;;;;;6150114;28;19917;-83
2023/04/13 14:09:26;;;;;;;;;;;;;;;;;;6149053;28;19997;-83
2023/04/13 14:12:26;;;;;;;;;;;;;;;;;;6149228;29;20365;-84
2023/04/13 14:15:27;;;;;;;;;;;;;;;;;;6150852;28;19923;-82
2023/04/13 14:18:28;;;;;;;;;;;;;;;;;;6149781;29;19915;-83
2023/04/13 14:21:28;;;;;;;;;;;;;;;;;;6146053;28;20419;-83
2023/04/13 14:24:29;;;;;;;;;;;;;;;;;;6152836;28;19914;-83
2023/04/13 14:27:29;;;;;;;;;;;;;;;;;;6150202;28;19910;-82
2023/04/13 14:30:29;;;;;;;;;;;;;;;;;;6154184;28;19917;-81
2023/04/13 14:33:29;;;;;;;;;;;;;;;;;;6153299;28;19964;-81
2023/04/13 14:36:30;;;;;;;;;;;;;;;;;;6154509;28;19911;-80
2023/04/13 14:39:30;;;;;;;;;;;;;;;;;;6152002;28;19910;-82
2023/04/13 14:42:31;;;;;;;;;;;;;;;;;;6149939;29;19910;-82
2023/04/13 14:45:31;;;;;;;;;;;;;;;;;;6151374;28;19997;-82
2023/04/13 14:48:31;;;;;;;;;;;;;;;;;;6154345;28;19915;-82
2023/04/13 14:51:32;;;;;;;;;;;;;;;;;;6153683;28;19907;-82
2023/04/13 14:54:32;;;;;;;;;;;;;;;;;;6155807;28;19958;-81
2023/04/13 14:57:32;;;;;;;;;;;;;;;;;;6156526;28;19937;-83
2023/04/13 15:00:39;;;;;;;;;;;;;;;;;;6153840;28;19914;-82
2023/04/13 15:03:39;;;;;;;;;;;;;;;;;;6152243;28;20202;-82
2023/04/13 15:06:39;;;;;;;;;;;;;;;;;;6152098;28;19949;-83
2023/04/13 15:09:39;;;;;;;;;;;;;;;;;;6150570;28;19914;-82
2023/04/13 15:12:40;;;;;;;;;;;;;;;;;;6153014;28;19910;-80
2023/04/13 15:15:40;;;;;;;;;;;;;;;;;;6151896;29;19918;-82
2023/04/13 15:18:40;;;;;;;;;;;;;;;;;;6156886;28;19910;-80
2023/04/13 15:21:40;;;;;;;;;;;;;;;;;;6151523;28;19965;-82
2023/04/13 15:24:40;;;;;;;;;;;;;;;;;;6151901;28;19985;-79
2023/04/13 15:27:41;;;;;;;;;;;;;;;;;;6151818;29;19910;-81
2023/04/13 15:30:42;;;;;;;;;;;;;;;;;;6155083;28;19913;-80
2023/04/13 15:33:42;;;;;;;;;;;;;;;;;;6161177;28;19918;-82
2023/04/13 15:36:42;;;;;;;;;;;;;;;;;;6152879;28;19910;-80
2023/04/13 15:39:42;;;;;;;;;;;;;;;;;;6158272;28;19992;-82
2023/04/13 15:42:42;;;;;;;;;;;;;;;;;;6155625;28;20369;-82
2023/04/13 15:45:42;;;;;;;;;;;;;;;;;;6153256;28;20369;-81
2023/04/13 15:48:42;;;;;;;;;;;;;;;;;;6147062;29;19922;-81
2023/04/13 15:51:42;;;;;;;;;;;;;;;;;;6151137;28;19914;-81
2023/04/13 15:54:42;;;;;;;;;;;;;;;;;;6153813;28;19921;-81
2023/04/13 15:57:43;;;;;;;;;;;;;;;;;;6159518;29;19918;-82
2023/04/13 16:00:43;;;;;;;;;;;;;;;;;;6168748;28;19907;-81
2023/04/13 16:03:43;;;;;;;;;;;;;;;;;;6160677;28;19918;-82
2023/04/13 16:06:43;;;;;;;;;;;;;;;;;;6154871;28;19906;-83
2023/04/13 16:09:44;;;;;;;;;;;;;;;;;;6153160;29;19952;-82
2023/04/13 16:12:44;;;;;;;;;;;;;;;;;;6155804;29;19917;-82
2023/04/13 16:15:45;;;;;;;;;;;;;;;;;;6166171;29;19918;-82
2023/04/13 16:18:46;;;;;;;;;;;;;;;;;;6166930;29;19925;-82
2023/04/13 16:21:49;;;;;;;;;;;;;;;;;;6165750;28;19914;-83
2023/04/13 16:24:49;;;;;;;;;;;;;;;;;;6160129;29;19933;-81
2023/04/13 16:27:50;;;;;;;;;;;;;;;;;;6174898;28;19925;-81
2023/04/13 16:30:50;;;;;;;;;;;;;;;;;;6177183;29;19985;-82
2023/04/13 16:33:50;;;;;;;;;;;;;;;;;;6157078;28;19914;-82
2023/04/13 16:36:51;;;;;;;;;;;;;;;;;;6154789;29;19925;-82
2023/04/13 16:39:51;;;;;;;;;;;;;;;;;;6150758;28;19969;-83
2023/04/13 16:42:51;;;;;;;;;;;;;;;;;;6153099;28;19915;-83
2023/04/13 16:45:51;;;;;;;;;;;;;;;;;;6162585;28;19914;-84
2023/04/13 16:48:51;;;;;;;;;;;;;;;;;;6156252;28;19918;-84
2023/04/13 16:51:51;;;;;;;;;;;;;;;;;;6158012;28;19910;-85
2023/04/13 16:54:53;;;;;;;;;;;;;;;;;;6151970;28;19941;-85
2023/04/13 16:57:53;;;;;;;;;;;;;;;;;;6161807;28;19914;-89
2023/04/13 17:10:33;;;;;;;;;;;;;;;;;;6222421;23;19929;-86
2023/04/13 17:13:33;;;;;;;;;;;;;;;;;;6171178;28;19989;-86
2023/04/13 17:16:38;;;;;;;;;;;;;;;;;;6179038;28;19910;-81
2023/04/13 17:19:39;;;;;;;;;;;;;;;;;;6181891;28;20683;-83
2023/04/13 17:22:39;;;;;;;;;;;;;;;;;;6182707;28;19910;-81
2023/04/13 17:25:40;;;;;;;;;;;;;;;;;;6179839;28;19921;-81
2023/04/13 17:28:40;;;;;;;;;;;;;;;;;;6179897;28;19918;-83
2023/04/13 17:31:40;;;;;;;;;;;;;;;;;;6179069;28;19913;-82
2023/04/13 17:34:40;;;;;;;;;;;;;;;;;;6181045;28;19922;-80
2023/04/13 17:37:41;;;;;;;;;;;;;;;;;;6169115;28;20348;-83
2023/04/13 17:40:41;;;;;;;;;;;;;;;;;;6178145;28;19914;-79
2023/04/13 17:43:41;;;;;;;;;;;;;;;;;;6182107;28;19914;-84
2023/04/13 17:46:41;;;;;;;;;;;;;;;;;;6178935;28;19909;-84
2023/04/13 17:49:41;;;;;;;;;;;;;;;;;;6179283;28;20279;-86
2023/04/13 17:52:42;;;;;;;;;;;;;;;;;;6175864;28;19907;-84
2023/04/13 17:55:42;;;;;;;;;;;;;;;;;;6172839;28;19910;-86
2023/04/13 17:58:42;;;;;;;;;;;;;;;;;;6171003;28;19914;-87
2023/04/13 18:01:42;;;;;;;;;;;;;;;;;;6179842;28;19933;-87
2023/04/13 18:04:42;;;;;;;;;;;;;;;;;;6180488;28;19910;-82
2023/04/13 18:07:42;;;;;;;;;;;;;;;;;;6185243;28;19910;-85
2023/04/13 18:10:45;;;;;;;;;;;;;;;;;;6197442;28;19906;-76
2023/04/13 18:13:45;;;;;;;;;;;;;;;;;;6186029;28;19975;-80
2023/04/13 18:16:46;;;;;;;;;;;;;;;;;;6180483;28;20033;-88
2023/04/13 18:19:47;;;;;;;;;;;;;;;;;;6194193;28;19913;-87
2023/04/13 18:22:48;;;;;;;;;;;;;;;;;;6177156;28;19925;-85
2023/04/13 18:25:48;;;;;;;;;;;;;;;;;;6190746;28;19933;-86
2023/04/13 18:28:48;;;;;;;;;;;;;;;;;;6192039;28;19906;-87
2023/04/13 18:31:49;;;;;;;;;;;;;;;;;;6190914;28;20058;-88
2023/04/13 18:34:51;;;;;;;;;;;;;;;;;;6200722;28;20360;-89
2023/04/13 18:37:51;;;;;;;;;;;;;;;;;;6181463;28;19910;-86
2023/04/13 18:40:51;;;;;;;;;;;;;;;;;;6185652;28;20253;-89
2023/04/13 18:43:52;;;;;;;;;;;;;;;;;;6194003;28;19952;-86
2023/04/13 18:46:52;;;;;;;;;;;;;;;;;;6214070;28;19956;-87
2023/04/13 18:49:52;;;;;;;;;;;;;;;;;;6194520;28;19917;-81
2023/04/13 18:52:52;;;;;;;;;;;;;;;;;;6190800;28;19910;-87
2023/04/13 18:55:52;;;;;;;;;;;;;;;;;;6188288;28;19906;-86
2023/04/13 18:58:53;;;;;;;;;;;;;;;;;;6195660;28;19921;-86
2023/04/13 19:01:53;;;;;;;;;;;;;;;;;;6188904;28;20004;-84
2023/04/13 19:04:53;;;;;;;;;;;;;;;;;;6198795;28;19909;-87
2023/04/13 19:07:55;;;;;;;;;;;;;;;;;;6198792;28;20280;-85
2023/04/13 19:10:56;;;;;;;;;;;;;;;;;;6181222;28;19916;-87
2023/04/13 19:13:56;;;;;;;;;;;;;;;;;;6187012;28;19910;-85
2023/04/13 19:16:56;;;;;;;;;;;;;;;;;;6219689;28;19914;-85
2023/04/13 19:19:57;;;;;;;;;;;;;;;;;;6208260;28;19906;-79
2023/04/13 19:22:57;;;;;;;;;;;;;;;;;;6208543;22;19930;-90
2023/04/13 19:25:57;;;;;;;;;;;;;;;;;;6166932;28;19921;-90
2023/04/13 19:28:59;;;;;;;;;;;;;;;;;;6161994;28;19914;-90
2023/04/13 19:31:59;;;;;;;;;;;;;;;;;;6162766;28;19989;-89
2023/04/13 19:34:59;;;;;;;;;;;;;;;;;;6163142;28;19945;-90
2023/04/13 19:37:59;;;;;;;;;;;;;;;;;;6173543;28;19954;-90
2023/04/13 19:40:59;;;;;;;;;;;;;;;;;;6166825;28;19907;-90
2023/04/13 19:43:59;;;;;;;;;;;;;;;;;;6169860;28;19918;-91
2023/04/13 19:47:00;;;;;;;;;;;;;;;;;;6169450;28;20293;-89
2023/04/13 19:50:00;;;;;;;;;;;;;;;;;;6170055;28;19938;-90
2023/04/13 19:53:01;;;;;;;;;;;;;;;;;;6169518;28;20209;-91
2023/04/13 19:56:01;;;;;;;;;;;;;;;;;;6167920;28;19921;-90
2023/04/13 19:59:02;;;;;;;;;;;;;;;;;;6166990;28;19910;-90
2023/04/13 20:02:02;;;;;;;;;;;;;;;;;;6167979;28;19930;-90
2023/04/13 20:05:02;;;;;;;;;;;;;;;;;;6174300;28;19917;-90
2023/04/13 20:08:02;;;;;;;;;;;;;;;;;;6150023;28;19922;-90
2023/04/13 20:11:02;;;;;;;;;;;;;;;;;;6143047;28;19914;-91
2023/04/13 20:14:03;;;;;;;;;;;;;;;;;;6139980;29;20434;-90
2023/04/13 20:17:03;;;;;;;;;;;;;;;;;;6138755;28;19918;-90
2023/04/13 20:20:05;;;;;;;;;;;;;;;;;;6141782;28;19906;-91
2023/04/13 20:23:06;;;;;;;;;;;;;;;;;;6146165;29;19919;-90
2023/04/13 20:26:06;;;;;;;;;;;;;;;;;;6142994;29;19946;-90
2023/04/13 20:29:07;;;;;;;;;;;;;;;;;;6145254;28;19953;-91
2023/04/13 20:32:07;;;;;;;;;;;;;;;;;;6148574;29;19917;-91
2023/04/13 20:35:07;;;;;;;;;;;;;;;;;;6145666;28;19921;-90
2023/04/13 20:38:07;;;;;;;;;;;;;;;;;;6142923;28;19911;-89
2023/04/13 20:41:09;;;;;;;;;;;;;;;;;;6156905;28;19915;-91